sensor_id;sensor_type;location;lat;lon;timestamp;temperature;humidity
15184;DHT22;7693;49.266;7.104;2023-03-01T06:32:43;-1.40;99.90
15184;DHT22;7693;49.266;7.104;2023-03-01T06:35:11;-1.40;99.90
15184;DHT22;7693;49.266;7.104;2023-03-01T06:37:37;-1.40;99.90
15184;DHT22;7693;49.266;7.104;2023-03-01T06:40:04;-1.30;99.90
15184;DHT22;7693;49.266;7.104;2023-03-01T06:42:34;-1.30;99.90
15184;DHT22;7693;49.266;7.104;2023-03-01T06:45:00;-1.20;99.90
15184;DHT22;7693;49.266;7.104;2023-03-01T06:47:25;-1.10;99.90
15184;DHT22;7693;49.266;7.104;2023-03-01T06:49:51;-1.10;99.90
15184;DHT22;7693;49.266;7.104;2023-03-01T06:52:16;-1.00;99.90
15184;DHT22;7693;49.266;7.104;2023-03-01T06:54:42;-0.90;99.90
15184;DHT22;7693;49.266;7.104;2023-03-01T06:57:07;-0.80;99.90
15184;DHT22;7693;49.266;7.104;2023-03-01T06:59:33;-0.80;99.90
15184;DHT22;7693;49.266;7.104;2023-03-01T07:01:58;-0.70;99.90
15184;DHT22;7693;49.266;7.104;2023-03-01T07:04:24;-0.60;99.90
15184;DHT22;7693;49.266;7.104;2023-03-01T07:06:49;-0.50;99.90
15184;DHT22;7693;49.266;7.104;2023-03-01T07:09:21;-0.40;99.90
15184;DHT22;7693;49.266;7.104;2023-03-01T07:11:47;-0.30;99.90
15184;DHT22;7693;49.266;7.104;2023-03-01T07:14:13;-0.20;99.90
15184;DHT22;7693;49.266;7.104;2023-03-01T07:16:38;-0.20;99.90
15184;DHT22;7693;49.266;7.104;2023-03-01T07:19:04;-0.10;99.90
15184;DHT22;7693;49.266;7.104;2023-03-01T07:21:30;0.00;99.90
15184;DHT22;7693;49.266;7.104;2023-03-01T07:23:56;0.00;99.90
15184;DHT22;7693;49.266;7.104;2023-03-01T07:26:22;0.10;99.90
15184;DHT22;7693;49.266;7.104;2023-03-01T07:28:47;0.10;99.90
15184;DHT22;7693;49.266;7.104;2023-03-01T07:31:13;0.20;99.90
15184;DHT22;7693;49.266;7.104;2023-03-01T07:33:38;0.20;99.90
15184;DHT22;7693;49.266;7.104;2023-03-01T07:36:04;0.30;99.90
15184;DHT22;7693;49.266;7.104;2023-03-01T07:38:31;0.40;99.90
15184;DHT22;7693;49.266;7.104;2023-03-01T07:41:02;0.50;99.90
15184;DHT22;7693;49.266;7.104;2023-03-01T07:43:29;0.50;99.90
15184;DHT22;7693;49.266;7.104;2023-03-01T07:45:58;0.50;99.90
15184;DHT22;7693;49.266;7.104;2023-03-01T07:48:23;0.60;99.90
15184;DHT22;7693;49.266;7.104;2023-03-01T07:50:49;0.60;99.90
15184;DHT22;7693;49.266;7.104;2023-03-01T07:53:14;0.70;99.90
15184;DHT22;7693;49.266;7.104;2023-03-01T07:55:40;0.70;99.90
15184;DHT22;7693;49.266;7.104;2023-03-01T07:58:06;0.80;99.90
15184;DHT22;7693;49.266;7.104;2023-03-01T08:00:31;0.80;99.90
15184;DHT22;7693;49.266;7.104;2023-03-01T08:02:59;0.90;99.90
15184;DHT22;7693;49.266;7.104;2023-03-01T08:05:26;0.90;99.90
15184;DHT22;7693;49.266;7.104;2023-03-01T08:07:52;1.00;99.90
15184;DHT22;7693;49.266;7.104;2023-03-01T08:10:17;1.00;99.90
15184;DHT22;7693;49.266;7.104;2023-03-01T08:12:43;1.00;99.90
15184;DHT22;7693;49.266;7.104;2023-03-01T08:15:09;1.10;99.90
15184;DHT22;7693;49.266;7.104;2023-03-01T08:17:35;1.10;99.90
15184;DHT22;7693;49.266;7.104;2023-03-01T08:20:00;1.20;99.90
15184;DHT22;7693;49.266;7.104;2023-03-01T08:22:26;1.30;99.90
15184;DHT22;7693;49.266;7.104;2023-03-01T08:24:51;1.30;99.90
15184;DHT22;7693;49.266;7.104;2023-03-01T08:27:17;1.30;99.90
15184;DHT22;7693;49.266;7.104;2023-03-01T08:29:43;1.40;99.90
15184;DHT22;7693;49.266;7.104;2023-03-01T08:32:08;1.40;99.90
15184;DHT22;7693;49.266;7.104;2023-03-01T08:34:34;1.40;99.90
15184;DHT22;7693;49.266;7.104;2023-03-01T08:37:01;1.50;99.90
15184;DHT22;7693;49.266;7.104;2023-03-01T08:39:27;1.60;99.90
15184;DHT22;7693;49.266;7.104;2023-03-01T08:41:53;1.60;99.90
15184;DHT22;7693;49.266;7.104;2023-03-01T08:44:18;1.60;99.90
15184;DHT22;7693;49.266;7.104;2023-03-01T08:46:46;1.70;99.90
15184;DHT22;7693;49.266;7.104;2023-03-01T08:49:16;1.70;99.90
15184;DHT22;7693;49.266;7.104;2023-03-01T08:51:43;1.80;99.90
15184;DHT22;7693;49.266;7.104;2023-03-01T08:54:18;1.90;99.90
15184;DHT22;7693;49.266;7.104;2023-03-01T08:56:44;1.90;99.90
15184;DHT22;7693;49.266;7.104;2023-03-01T08:59:14;2.00;99.90
15184;DHT22;7693;49.266;7.104;2023-03-01T09:01:41;2.00;99.90
15184;DHT22;7693;49.266;7.104;2023-03-01T09:04:09;2.00;99.90
15184;DHT22;7693;49.266;7.104;2023-03-01T09:06:34;2.10;99.90
15184;DHT22;7693;49.266;7.104;2023-03-01T09:09:01;2.20;99.90
15184;DHT22;7693;49.266;7.104;2023-03-01T09:11:28;2.30;99.90
15184;DHT22;7693;49.266;7.104;2023-03-01T09:13:54;2.40;99.90
15184;DHT22;7693;49.266;7.104;2023-03-01T09:16:21;2.40;99.90
15184;DHT22;7693;49.266;7.104;2023-03-01T09:18:52;2.40;99.90
15184;DHT22;7693;49.266;7.104;2023-03-01T09:21:20;2.50;99.90
15184;DHT22;7693;49.266;7.104;2023-03-01T09:23:47;2.50;99.90
15184;DHT22;7693;49.266;7.104;2023-03-01T09:26:15;2.50;99.90
15184;DHT22;7693;49.266;7.104;2023-03-01T09:28:45;2.60;99.90
15184;DHT22;7693;49.266;7.104;2023-03-01T09:31:12;2.60;99.90
15184;DHT22;7693;49.266;7.104;2023-03-01T09:33:39;2.70;99.90
15184;DHT22;7693;49.266;7.104;2023-03-01T09:36:08;2.70;99.90
15184;DHT22;7693;49.266;7.104;2023-03-01T09:38:35;2.80;99.90
15184;DHT22;7693;49.266;7.104;2023-03-01T09:41:01;3.00;99.90
15184;DHT22;7693;49.266;7.104;2023-03-01T09:43:48;3.10;99.90
15184;DHT22;7693;49.266;7.104;2023-03-01T09:46:20;3.20;99.90
15184;DHT22;7693;49.266;7.104;2023-03-01T09:49:09;3.30;99.90
15184;DHT22;7693;49.266;7.104;2023-03-01T09:51:36;3.40;99.90
15184;DHT22;7693;49.266;7.104;2023-03-01T09:54:03;3.50;99.90
15184;DHT22;7693;49.266;7.104;2023-03-01T09:56:38;3.60;99.90
15184;DHT22;7693;49.266;7.104;2023-03-01T09:59:20;3.70;99.90
15184;DHT22;7693;49.266;7.104;2023-03-01T10:07:54;3.80;99.90
15184;DHT22;7693;49.266;7.104;2023-03-01T10:10:34;3.80;99.90
15184;DHT22;7693;49.266;7.104;2023-03-01T10:13:26;3.90;99.90
15184;DHT22;7693;49.266;7.104;2023-03-01T10:16:28;4.00;99.90
15184;DHT22;7693;49.266;7.104;2023-03-01T10:18:53;4.00;99.90
15184;DHT22;7693;49.266;7.104;2023-03-01T10:21:20;4.10;99.90
15184;DHT22;7693;49.266;7.104;2023-03-01T10:23:49;4.10;99.90
15184;DHT22;7693;49.266;7.104;2023-03-01T10:32:23;4.30;99.90
15184;DHT22;7693;49.266;7.104;2023-03-01T10:34:49;4.30;99.90
15184;DHT22;7693;49.266;7.104;2023-03-01T10:37:17;4.30;99.90
15184;DHT22;7693;49.266;7.104;2023-03-01T10:40:06;4.40;99.90
15184;DHT22;7693;49.266;7.104;2023-03-01T10:42:37;4.40;99.90
15184;DHT22;7693;49.266;7.104;2023-03-01T10:45:32;4.50;99.90
15184;DHT22;7693;49.266;7.104;2023-03-01T10:48:17;4.60;99.90
15184;DHT22;7693;49.266;7.104;2023-03-01T10:50:46;4.60;99.90
15184;DHT22;7693;49.266;7.104;2023-03-01T10:53:32;4.70;99.90
15184;DHT22;7693;49.266;7.104;2023-03-01T10:58:33;4.70;99.90
15184;DHT22;7693;49.266;7.104;2023-03-01T13:33:55;7.00;99.90
15184;DHT22;7693;49.266;7.104;2023-03-01T13:36:45;7.10;99.90
15184;DHT22;7693;49.266;7.104;2023-03-01T13:41:51;7.10;99.90
15184;DHT22;7693;49.266;7.104;2023-03-01T13:47:02;7.20;99.90
15184;DHT22;7693;49.266;7.104;2023-03-01T13:49:35;7.20;99.90
15184;DHT22;7693;49.266;7.104;2023-03-01T13:52:06;7.30;99.90
15184;DHT22;7693;49.266;7.104;2023-03-01T13:54:39;7.30;99.90
15184;DHT22;7693;49.266;7.104;2023-03-01T13:57:05;7.30;99.90
15184;DHT22;7693;49.266;7.104;2023-03-01T13:59:30;7.40;99.90
15184;DHT22;7693;49.266;7.104;2023-03-01T14:01:58;7.40;99.90
15184;DHT22;7693;49.266;7.104;2023-03-01T14:04:29;7.40;99.90
15184;DHT22;7693;49.266;7.104;2023-03-01T14:09:38;7.40;99.90
15184;DHT22;7693;49.266;7.104;2023-03-01T14:12:34;7.50;99.90
15184;DHT22;7693;49.266;7.104;2023-03-01T14:15:32;7.60;99.90
15184;DHT22;7693;49.266;7.104;2023-03-01T14:20:43;7.60;99.90
15184;DHT22;7693;49.266;7.104;2023-03-01T14:23:20;7.50;99.90
15184;DHT22;7693;49.266;7.104;2023-03-01T14:25:48;7.50;99.90
15184;DHT22;7693;49.266;7.104;2023-03-01T14:28:16;7.60;99.90
15184;DHT22;7693;49.266;7.104;2023-03-01T14:30:44;7.60;99.90
15184;DHT22;7693;49.266;7.104;2023-03-01T14:33:28;7.60;99.90
15184;DHT22;7693;49.266;7.104;2023-03-01T14:38:33;7.70;99.90
15184;DHT22;7693;49.266;7.104;2023-03-01T14:41:07;7.70;99.90
15184;DHT22;7693;49.266;7.104;2023-03-01T14:43:33;7.70;99.90
15184;DHT22;7693;49.266;7.104;2023-03-01T14:45:59;7.70;99.90
15184;DHT22;7693;49.266;7.104;2023-03-01T14:48:27;7.70;99.90
15184;DHT22;7693;49.266;7.104;2023-03-01T14:50:53;7.60;99.90
15184;DHT22;7693;49.266;7.104;2023-03-01T14:53:28;7.60;99.90
15184;DHT22;7693;49.266;7.104;2023-03-01T14:56:01;7.70;99.90
15184;DHT22;7693;49.266;7.104;2023-03-01T14:58:32;7.70;99.90
15184;DHT22;7693;49.266;7.104;2023-03-01T15:01:00;7.70;99.90
15184;DHT22;7693;49.266;7.104;2023-03-01T15:03:38;7.80;99.90
15184;DHT22;7693;49.266;7.104;2023-03-01T15:06:07;7.90;99.90
15184;DHT22;7693;49.266;7.104;2023-03-01T15:08:34;7.90;99.90
15184;DHT22;7693;49.266;7.104;2023-03-01T15:11:22;7.90;99.90
15184;DHT22;7693;49.266;7.104;2023-03-01T15:13:53;7.90;99.90
15184;DHT22;7693;49.266;7.104;2023-03-01T15:16:31;8.00;99.90
15184;DHT22;7693;49.266;7.104;2023-03-01T15:21:29;8.20;99.90
15184;DHT22;7693;49.266;7.104;2023-03-01T15:24:01;8.20;99.90
15184;DHT22;7693;49.266;7.104;2023-03-01T15:26:30;8.20;99.90
15184;DHT22;7693;49.266;7.104;2023-03-01T15:28:57;8.20;99.90
15184;DHT22;7693;49.266;7.104;2023-03-01T15:31:29;8.30;99.90
15184;DHT22;7693;49.266;7.104;2023-03-01T15:34:26;8.40;99.90
15184;DHT22;7693;49.266;7.104;2023-03-01T15:36:53;8.40;99.90
15184;DHT22;7693;49.266;7.104;2023-03-01T15:39:55;8.40;99.90
15184;DHT22;7693;49.266;7.104;2023-03-01T15:45:21;8.00;99.90
15184;DHT22;7693;49.266;7.104;2023-03-01T15:47:51;7.80;99.90
15184;DHT22;7693;49.266;7.104;2023-03-01T15:50:21;7.70;99.90
15184;DHT22;7693;49.266;7.104;2023-03-01T15:52:47;7.60;99.90
15184;DHT22;7693;49.266;7.104;2023-03-01T15:55:21;7.50;99.90
15184;DHT22;7693;49.266;7.104;2023-03-01T15:57:47;7.50;99.90
15184;DHT22;7693;49.266;7.104;2023-03-01T16:00:14;7.60;99.90
15184;DHT22;7693;49.266;7.104;2023-03-01T16:02:41;7.60;99.90
15184;DHT22;7693;49.266;7.104;2023-03-01T16:05:31;7.50;99.90
15184;DHT22;7693;49.266;7.104;2023-03-01T16:07:57;7.50;99.90
15184;DHT22;7693;49.266;7.104;2023-03-01T16:10:23;7.40;99.90
15184;DHT22;7693;49.266;7.104;2023-03-01T16:12:50;7.30;99.90
15184;DHT22;7693;49.266;7.104;2023-03-01T16:15:29;7.30;99.90
15184;DHT22;7693;49.266;7.104;2023-03-01T16:17:55;7.20;99.90
15184;DHT22;7693;49.266;7.104;2023-03-01T16:20:21;7.10;99.90
15184;DHT22;7693;49.266;7.104;2023-03-01T16:22:47;7.10;99.90
15184;DHT22;7693;49.266;7.104;2023-03-01T16:25:14;7.10;99.90
15184;DHT22;7693;49.266;7.104;2023-03-01T16:27:48;7.00;99.90
15184;DHT22;7693;49.266;7.104;2023-03-01T16:30:17;6.90;99.90
15184;DHT22;7693;49.266;7.104;2023-03-01T16:32:44;6.80;99.90
15184;DHT22;7693;49.266;7.104;2023-03-01T16:35:12;6.80;99.90
15184;DHT22;7693;49.266;7.104;2023-03-01T16:37:39;6.70;99.90
15184;DHT22;7693;49.266;7.104;2023-03-01T16:40:09;6.70;99.90
15184;DHT22;7693;49.266;7.104;2023-03-01T16:42:40;6.60;99.90
15184;DHT22;7693;49.266;7.104;2023-03-01T16:45:07;6.60;99.90
15184;DHT22;7693;49.266;7.104;2023-03-01T16:47:33;6.50;99.90
15184;DHT22;7693;49.266;7.104;2023-03-01T16:49:59;6.50;99.90
15184;DHT22;7693;49.266;7.104;2023-03-01T16:52:25;6.40;99.90
15184;DHT22;7693;49.266;7.104;2023-03-01T16:54:50;6.40;99.90
15184;DHT22;7693;49.266;7.104;2023-03-01T16:57:16;6.40;99.90
15184;DHT22;7693;49.266;7.104;2023-03-01T16:59:41;6.30;99.90
15184;DHT22;7693;49.266;7.104;2023-03-01T17:02:11;6.30;99.90
15184;DHT22;7693;49.266;7.104;2023-03-01T17:04:38;6.20;99.90
15184;DHT22;7693;49.266;7.104;2023-03-01T17:07:04;6.20;99.90
15184;DHT22;7693;49.266;7.104;2023-03-01T17:09:29;6.10;99.90
15184;DHT22;7693;49.266;7.104;2023-03-01T17:11:55;6.10;99.90
15184;DHT22;7693;49.266;7.104;2023-03-01T17:14:21;6.10;99.90
15184;DHT22;7693;49.266;7.104;2023-03-01T17:16:46;6.10;99.90
15184;DHT22;7693;49.266;7.104;2023-03-01T17:19:12;6.00;99.90
15184;DHT22;7693;49.266;7.104;2023-03-01T17:21:43;5.90;99.90
15184;DHT22;7693;49.266;7.104;2023-03-01T17:24:09;5.90;99.90
15184;DHT22;7693;49.266;7.104;2023-03-01T17:26:35;5.90;99.90
15184;DHT22;7693;49.266;7.104;2023-03-01T17:29:00;5.80;99.90
15184;DHT22;7693;49.266;7.104;2023-03-01T17:31:26;5.80;99.90
15184;DHT22;7693;49.266;7.104;2023-03-01T17:33:52;5.70;99.90
15184;DHT22;7693;49.266;7.104;2023-03-01T17:36:17;5.70;99.90
15184;DHT22;7693;49.266;7.104;2023-03-01T17:38:43;5.60;99.90
15184;DHT22;7693;49.266;7.104;2023-03-01T17:41:10;5.60;99.90
15184;DHT22;7693;49.266;7.104;2023-03-01T17:43:37;5.60;99.90
15184;DHT22;7693;49.266;7.104;2023-03-01T17:46:03;5.50;99.90
15184;DHT22;7693;49.266;7.104;2023-03-01T17:48:28;5.50;99.80
15184;DHT22;7693;49.266;7.104;2023-03-01T17:50:54;5.40;99.80
15184;DHT22;7693;49.266;7.104;2023-03-01T17:53:20;5.40;99.80
15184;DHT22;7693;49.266;7.104;2023-03-01T17:55:46;5.40;99.80
15184;DHT22;7693;49.266;7.104;2023-03-01T17:58:14;5.30;99.70
15184;DHT22;7693;49.266;7.104;2023-03-01T18:00:39;5.30;99.70
15184;DHT22;7693;49.266;7.104;2023-03-01T18:03:05;5.20;99.70
15184;DHT22;7693;49.266;7.104;2023-03-01T18:05:33;5.10;99.70
15184;DHT22;7693;49.266;7.104;2023-03-01T18:07:59;5.10;99.70
15184;DHT22;7693;49.266;7.104;2023-03-01T18:10:25;5.10;99.80
15184;DHT22;7693;49.266;7.104;2023-03-01T18:12:51;5.00;99.70
15184;DHT22;7693;49.266;7.104;2023-03-01T18:15:16;5.00;99.70
15184;DHT22;7693;49.266;7.104;2023-03-01T18:17:42;5.00;99.70
15184;DHT22;7693;49.266;7.104;2023-03-01T18:20:08;4.90;99.70
15184;DHT22;7693;49.266;7.104;2023-03-01T18:22:34;4.90;99.70
15184;DHT22;7693;49.266;7.104;2023-03-01T18:25:00;4.80;99.60
15184;DHT22;7693;49.266;7.104;2023-03-01T18:27:25;4.80;99.60
15184;DHT22;7693;49.266;7.104;2023-03-01T18:29:51;4.80;99.70
15184;DHT22;7693;49.266;7.104;2023-03-01T18:32:17;4.70;99.60
15184;DHT22;7693;49.266;7.104;2023-03-01T18:34:43;4.70;99.60
15184;DHT22;7693;49.266;7.104;2023-03-01T18:37:09;4.70;99.60
15184;DHT22;7693;49.266;7.104;2023-03-01T18:39:35;4.60;99.50
15184;DHT22;7693;49.266;7.104;2023-03-01T18:42:01;4.60;99.60
15184;DHT22;7693;49.266;7.104;2023-03-01T18:44:28;4.50;99.60
15184;DHT22;7693;49.266;7.104;2023-03-01T18:46:54;4.50;99.60
15184;DHT22;7693;49.266;7.104;2023-03-01T18:49:23;4.50;99.60
15184;DHT22;7693;49.266;7.104;2023-03-01T18:51:48;4.50;99.60
15184;DHT22;7693;49.266;7.104;2023-03-01T18:54:15;4.40;99.50
15184;DHT22;7693;49.266;7.104;2023-03-01T18:56:40;4.40;99.60
15184;DHT22;7693;49.266;7.104;2023-03-01T18:59:06;4.30;99.50
15184;DHT22;7693;49.266;7.104;2023-03-01T19:01:32;4.30;99.50
15184;DHT22;7693;49.266;7.104;2023-03-01T19:03:58;4.30;99.50
15184;DHT22;7693;49.266;7.104;2023-03-01T19:06:27;4.20;99.50
15184;DHT22;7693;49.266;7.104;2023-03-01T19:08:54;4.20;99.50
15184;DHT22;7693;49.266;7.104;2023-03-01T19:11:19;4.10;99.50
15184;DHT22;7693;49.266;7.104;2023-03-01T19:13:46;4.10;99.50
15184;DHT22;7693;49.266;7.104;2023-03-01T19:16:17;4.10;99.50
15184;DHT22;7693;49.266;7.104;2023-03-01T19:18:44;4.00;99.50
15184;DHT22;7693;49.266;7.104;2023-03-01T19:21:20;4.00;99.50
15184;DHT22;7693;49.266;7.104;2023-03-01T19:23:46;4.00;99.50
15184;DHT22;7693;49.266;7.104;2023-03-01T19:26:17;3.90;99.50
15184;DHT22;7693;49.266;7.104;2023-03-01T19:28:44;3.90;99.50
15184;DHT22;7693;49.266;7.104;2023-03-01T19:31:15;3.80;99.50
15184;DHT22;7693;49.266;7.104;2023-03-01T19:33:42;3.80;99.50
15184;DHT22;7693;49.266;7.104;2023-03-01T19:36:09;3.70;99.50
15184;DHT22;7693;49.266;7.104;2023-03-01T19:38:36;3.70;99.50
15184;DHT22;7693;49.266;7.104;2023-03-01T19:41:07;3.70;99.50
15184;DHT22;7693;49.266;7.104;2023-03-01T19:43:34;3.60;99.40
15184;DHT22;7693;49.266;7.104;2023-03-01T19:46:00;3.60;99.40
15184;DHT22;7693;49.266;7.104;2023-03-01T19:48:26;3.50;99.50
15184;DHT22;7693;49.266;7.104;2023-03-01T19:50:52;3.40;99.50
15184;DHT22;7693;49.266;7.104;2023-03-01T19:53:18;3.40;99.50
15184;DHT22;7693;49.266;7.104;2023-03-01T19:55:44;3.40;99.50
15184;DHT22;7693;49.266;7.104;2023-03-01T19:58:10;3.30;99.40
15184;DHT22;7693;49.266;7.104;2023-03-01T20:00:37;3.30;99.50
15184;DHT22;7693;49.266;7.104;2023-03-01T20:03:03;3.20;99.40
15184;DHT22;7693;49.266;7.104;2023-03-01T20:05:32;3.20;99.50
15184;DHT22;7693;49.266;7.104;2023-03-01T20:07:59;3.10;99.50
15184;DHT22;7693;49.266;7.104;2023-03-01T20:10:25;3.10;99.50
15184;DHT22;7693;49.266;7.104;2023-03-01T20:12:51;3.00;99.50
15184;DHT22;7693;49.266;7.104;2023-03-01T20:15:17;3.00;99.60
15184;DHT22;7693;49.266;7.104;2023-03-01T20:17:43;3.00;99.60
15184;DHT22;7693;49.266;7.104;2023-03-01T20:20:09;2.90;99.50
15184;DHT22;7693;49.266;7.104;2023-03-01T20:22:34;2.90;99.60
15184;DHT22;7693;49.266;7.104;2023-03-01T20:25:00;2.90;99.70
15184;DHT22;7693;49.266;7.104;2023-03-01T20:27:25;2.90;99.70
15184;DHT22;7693;49.266;7.104;2023-03-01T20:29:51;2.90;99.70
15184;DHT22;7693;49.266;7.104;2023-03-01T20:32:17;2.90;99.70
15184;DHT22;7693;49.266;7.104;2023-03-01T20:34:42;2.80;99.60
15184;DHT22;7693;49.266;7.104;2023-03-01T20:37:08;2.80;99.60
15184;DHT22;7693;49.266;7.104;2023-03-01T20:39:33;2.80;99.70
15184;DHT22;7693;49.266;7.104;2023-03-01T20:41:59;2.80;99.70
15184;DHT22;7693;49.266;7.104;2023-03-01T20:44:24;2.80;99.70
15184;DHT22;7693;49.266;7.104;2023-03-01T20:46:50;2.80;99.70
15184;DHT22;7693;49.266;7.104;2023-03-01T20:49:16;2.70;99.70
15184;DHT22;7693;49.266;7.104;2023-03-01T20:51:42;2.70;99.80
15184;DHT22;7693;49.266;7.104;2023-03-01T20:54:08;2.70;99.80
15184;DHT22;7693;49.266;7.104;2023-03-01T20:56:35;2.70;99.80
15184;DHT22;7693;49.266;7.104;2023-03-01T20:59:05;2.70;99.80
15184;DHT22;7693;49.266;7.104;2023-03-01T21:01:34;2.70;99.80
15184;DHT22;7693;49.266;7.104;2023-03-01T21:04:00;2.60;99.70
15184;DHT22;7693;49.266;7.104;2023-03-01T21:06:26;2.60;99.70
15184;DHT22;7693;49.266;7.104;2023-03-01T21:08:53;2.60;99.70
15184;DHT22;7693;49.266;7.104;2023-03-01T21:11:19;2.50;99.80
15184;DHT22;7693;49.266;7.104;2023-03-01T21:13:49;2.50;99.80
15184;DHT22;7693;49.266;7.104;2023-03-01T21:16:14;2.50;99.80
15184;DHT22;7693;49.266;7.104;2023-03-01T21:18:41;2.40;99.80
15184;DHT22;7693;49.266;7.104;2023-03-01T21:21:10;2.40;99.80
15184;DHT22;7693;49.266;7.104;2023-03-01T21:23:37;2.40;99.90
15184;DHT22;7693;49.266;7.104;2023-03-01T21:26:07;2.40;99.90
15184;DHT22;7693;49.266;7.104;2023-03-01T21:28:33;2.40;99.90
15184;DHT22;7693;49.266;7.104;2023-03-01T21:31:08;2.40;99.90
15184;DHT22;7693;49.266;7.104;2023-03-01T21:33:35;2.40;99.90
15184;DHT22;7693;49.266;7.104;2023-03-01T21:36:03;2.40;99.90
15184;DHT22;7693;49.266;7.104;2023-03-01T21:38:30;2.40;99.90
15184;DHT22;7693;49.266;7.104;2023-03-01T21:40:56;2.30;99.90
15184;DHT22;7693;49.266;7.104;2023-03-01T21:43:23;2.30;99.90
15184;DHT22;7693;49.266;7.104;2023-03-01T21:45:48;2.30;99.90
15184;DHT22;7693;49.266;7.104;2023-03-01T21:48:14;2.30;99.90
15184;DHT22;7693;49.266;7.104;2023-03-01T21:50:40;2.30;99.90
15184;DHT22;7693;49.266;7.104;2023-03-01T21:53:05;2.20;99.90
15184;DHT22;7693;49.266;7.104;2023-03-01T21:55:31;2.20;99.90
15184;DHT22;7693;49.266;7.104;2023-03-01T21:57:58;2.20;99.90
15184;DHT22;7693;49.266;7.104;2023-03-01T22:00:24;2.20;99.90
15184;DHT22;7693;49.266;7.104;2023-03-01T22:02:49;2.10;99.90
15184;DHT22;7693;49.266;7.104;2023-03-01T22:05:15;2.10;99.90
15184;DHT22;7693;49.266;7.104;2023-03-01T22:07:40;2.10;99.90
15184;DHT22;7693;49.266;7.104;2023-03-01T22:10:06;2.10;99.90
15184;DHT22;7693;49.266;7.104;2023-03-01T22:12:32;2.10;99.90
15184;DHT22;7693;49.266;7.104;2023-03-01T22:14:58;2.10;99.90
15184;DHT22;7693;49.266;7.104;2023-03-01T22:17:24;2.10;99.90
15184;DHT22;7693;49.266;7.104;2023-03-01T22:19:49;2.10;99.90
15184;DHT22;7693;49.266;7.104;2023-03-01T22:22:15;2.00;99.90
15184;DHT22;7693;49.266;7.104;2023-03-01T22:24:40;2.00;99.90
15184;DHT22;7693;49.266;7.104;2023-03-01T22:27:06;2.00;99.90
15184;DHT22;7693;49.266;7.104;2023-03-01T22:29:31;2.00;99.90
15184;DHT22;7693;49.266;7.104;2023-03-01T22:31:57;2.00;99.90
15184;DHT22;7693;49.266;7.104;2023-03-01T22:34:23;2.00;99.90
15184;DHT22;7693;49.266;7.104;2023-03-01T22:36:49;2.00;99.90
15184;DHT22;7693;49.266;7.104;2023-03-01T22:39:17;2.00;99.90
15184;DHT22;7693;49.266;7.104;2023-03-01T22:41:44;2.00;99.90
15184;DHT22;7693;49.266;7.104;2023-03-01T22:44:14;2.00;99.90
15184;DHT22;7693;49.266;7.104;2023-03-01T22:46:41;2.00;99.90
15184;DHT22;7693;49.266;7.104;2023-03-01T22:49:08;1.90;99.90
15184;DHT22;7693;49.266;7.104;2023-03-01T22:51:36;1.90;99.90
15184;DHT22;7693;49.266;7.104;2023-03-01T22:54:02;1.90;99.90
15184;DHT22;7693;49.266;7.104;2023-03-01T22:56:31;1.90;99.90
15184;DHT22;7693;49.266;7.104;2023-03-01T22:58:58;1.80;99.90
15184;DHT22;7693;49.266;7.104;2023-03-01T23:01:24;1.80;99.90
15184;DHT22;7693;49.266;7.104;2023-03-01T23:03:51;1.80;99.90
15184;DHT22;7693;49.266;7.104;2023-03-01T23:06:18;1.70;99.90
15184;DHT22;7693;49.266;7.104;2023-03-01T23:08:52;1.70;99.90
15184;DHT22;7693;49.266;7.104;2023-03-01T23:11:19;1.70;99.90
15184;DHT22;7693;49.266;7.104;2023-03-01T23:13:45;1.70;99.90
15184;DHT22;7693;49.266;7.104;2023-03-01T23:16:14;1.80;99.90
15184;DHT22;7693;49.266;7.104;2023-03-01T23:18:41;1.70;99.90
15184;DHT22;7693;49.266;7.104;2023-03-01T23:21:12;1.80;99.90
